Latest Weather Observations for Wangaratta

IDV60801

Issued at 1:02 am EST Monday 27 June 2016 (issued every 30 minutes, with the page automatically refreshed every 10 minutes)

About weather observations | Map of weather stations | Latest weather observations for VIC | Other Formats
Station Details ID: 082138 Name: WANGARATTA AERO Lat: -36.42 Lon: 146.31 Height: 152.6 m
Data from the previous 72 hours. | See also: Recent months at Wangaratta
Date/Time
EST
Temp
°C
App
Temp
°C
Dew
Point
°C
Rel
Hum
%
Delta-T
°C
Wind Press
QNH
hPa
Press
MSL
hPa
Rain since
9am
mm
Dir  Spd
km/h
Gust
km/h
Spd
kts
Gust
kts
27/01:00am 3.4 2.0 3.3 99 0.0 CALM 0 0 0 0 1017.8 1018.1 0.0
27/12:30am 3.5 2.1 3.4 99 0.0 CALM 0 0 0 0 1017.9 1018.2 0.0
27/12:00am 3.5 2.1 3.4 99 0.0 CALM 0 0 0 0 1018.0 1018.3 0.0
 
Date/Time
EST
Temp
°C
App
Temp
°C
Dew
Point
°C
Rel
Hum
%
Delta-T
°C
Wind Press
QNH
hPa
Press
MSL
hPa
Rain since
9am
mm
Dir  Spd
km/h
Gust
km/h
Spd
kts
Gust
kts
26/11:30pm 3.4 2.0 3.3 99 0.0 CALM 0 0 0 0 1017.9 1018.2 0.0
26/11:00pm 3.4 2.0 3.3 99 0.0 CALM 0 0 0 0 1017.9 1018.2 0.0
26/10:58pm 3.4 2.0 3.3 99 0.0 CALM 0 0 0 0 1017.9 1018.2 0.0
26/10:30pm 3.4 2.0 3.3 99 0.0 CALM 0 0 0 0 1017.8 1018.1 0.0
26/10:25pm 3.3 1.8 3.2 99 0.0 CALM 0 0 0 0 1017.8 1018.1 0.0
26/10:00pm 3.8 2.4 3.7 99 0.0 CALM 0 0 0 0 1018.0 1018.3 0.0
26/09:30pm 3.7 1.2 3.6 99 0.0 SSW 6 6 3 3 1018.0 1018.3 0.0
26/09:00pm 4.1 2.8 4.0 99 0.0 CALM 0 0 0 0 1018.0 1018.3 0.0
26/08:30pm 3.9 2.1 3.6 98 0.1 WNW 2 7 1 4 1018.2 1018.5 0.0
26/08:00pm 4.5 3.2 4.2 98 0.1 CALM 0 0 0 0 1018.0 1018.3 0.0
26/07:30pm 4.5 3.2 4.1 97 0.2 CALM 0 0 0 0 1018.0 1018.3 0.0
26/07:00pm 4.8 3.5 4.1 95 0.3 CALM 0 0 0 0 1018.2 1018.5 0.0
26/06:30pm 5.2 3.9 4.2 93 0.4 CALM 0 0 0 0 1018.5 1018.7 0.0
26/06:00pm 5.3 4.0 4.1 92 0.5 CALM 0 0 0 0 1018.6 1018.8 0.0
26/05:30pm 5.6 4.2 3.8 88 0.8 CALM 0 4 0 2 1018.3 1018.6 0.0
26/05:00pm 6.3 3.9 4.1 86 0.9 NW 6 7 3 4 1018.3 1018.6 0.0
26/04:30pm 7.0 4.6 4.3 83 1.2 N 6 7 3 4 1018.5 1018.7 0.0
26/04:00pm 7.2 4.8 4.2 81 1.3 E 6 7 3 4 1018.3 1018.6 0.0
26/03:30pm 7.5 5.0 3.9 78 1.6 NE 6 7 3 4 1018.6 1018.8 0.0
26/03:00pm 7.6 4.9 3.8 77 1.6 NNE 7 11 4 6 1018.9 1019.1 0.0
26/02:30pm 7.4 4.9 3.8 78 1.6 NNW 6 11 3 6 1019.1 1019.4 0.0
26/02:00pm 7.6 5.6 4.4 80 1.4 N 4 9 2 5 1019.2 1019.5 0.0
26/01:30pm 7.0 4.0 4.0 81 1.3 N 9 11 5 6 1019.4 1019.7 0.0
26/01:00pm 6.5 3.4 3.8 83 1.2 NNW 9 11 5 6 1019.7 1020.0 0.0
26/12:30pm 6.1 3.6 3.9 86 0.9 N 6 9 3 5 1019.8 1020.1 0.0
26/12:00pm 5.3 2.3 4.0 91 0.6 NNW 9 13 5 7 1020.6 1020.9 0.0
26/11:39am 4.4 1.6 3.2 92 0.5 N 7 11 4 6 1020.9 1021.2 0.0
26/11:30am 4.1 1.5 3.1 93 0.4 NNW 6 11 3 6 1021.1 1021.4 0.0
26/11:00am 3.8 2.0 3.4 97 0.2 NE 2 7 1 4 1021.6 1021.9 0.0
26/10:30am 3.2 0.4 3.1 99 0.0 NE 7 11 4 6 1022.1 1022.4 0.0
26/10:00am 2.7 1.1 2.6 99 0.0 CALM 0 0 0 0 1022.7 1023.0 0.0
26/09:30am 1.4 -0.4 1.3 99 0.0 CALM 0 0 0 0 1022.7 1023.0 0.0
26/09:00am 1.2 -0.6 1.1 99 0.0 CALM 0 0 0 0 1022.9 1023.2 0.0
26/08:47am -0.1 -2.1 -0.2 99 0.0 CALM 0 0 0 0 1022.9 1023.2 0.0
26/08:30am -0.7 -2.8 -0.8 99 0.0 CALM 0 0 0 0 1022.9 1023.2 0.0
26/08:09am -1.2 -3.4 -1.3 99 0.0 CALM 0 0 0 0 1022.6 1022.9 0.0
26/08:02am -1.2 -3.4 -1.3 99 0.0 CALM 0 0 0 0 1022.6 1022.9 0.0
26/08:01am -1.2 -3.4 -1.3 99 0.0 CALM 0 0 0 0 1022.6 1022.9 0.0
26/08:00am -1.2 -3.4 -1.3 99 0.0 CALM 0 0 0 0 1022.6 1022.9 0.0
26/07:59am -1.2 -3.4 -1.3 99 0.0 CALM 0 0 0 0 1022.6 1022.9 0.0
26/07:42am -1.5 -3.7 -1.6 99 0.0 CALM 0 0 0 0 1022.6 1022.9 0.0
26/07:30am -1.7 -3.9 -1.8 99 0.0 CALM 0 0 0 0 1022.3 1022.6 0.0
26/07:29am -1.7 -3.9 -1.8 99 0.0 CALM 0 0 0 0 1022.3 1022.6 0.0
26/07:19am -1.8 -4.0 -1.9 99 0.0 CALM 0 0 0 0 1022.3 1022.6 0.0
26/07:00am -2.0 -4.3 -2.1 99 -0.1 CALM 0 0 0 0 1022.4 1022.7 0.0
26/06:59am -1.9 -4.2 -2.0 99 -0.1 CALM 0 0 0 0 1022.4 1022.7 0.0
26/06:56am -1.7 -3.9 -1.8 99 0.0 CALM 0 0 0 0 1022.3 1022.6 0.0
26/06:49am -1.8 -4.0 -1.9 99 0.0 CALM 0 0 0 0 1022.0 1022.3 0.0
26/06:31am -1.5 -3.7 -1.6 99 0.0 CALM 0 0 0 0 1021.9 1022.2 0.0
26/06:30am -1.4 -3.6 -1.5 99 0.0 CALM 0 0 0 0 1021.9 1022.2 0.0
26/06:25am -1.3 -3.5 -1.4 99 0.0 CALM 0 0 0 0 1022.0 1022.3 0.0
26/06:20am -1.4 -3.6 -1.5 99 0.0 CALM 0 0 0 0 1021.9 1022.2 0.0
26/06:05am -1.2 -3.4 -1.3 99 0.0 CALM 0 0 0 0 1021.7 1022.0 0.0
26/06:01am -1.1 -3.3 -1.2 99 0.0 CALM 0 0 0 0 1021.7 1022.0 0.0
26/06:00am -1.1 -3.3 -1.2 99 0.0 CALM 0 0 0 0 1021.7 1022.0 0.0
26/05:54am -1.1 -3.3 -1.2 99 0.0 CALM 0 0 0 0 1021.7 1022.0 0.0
26/05:30am -1.5 -3.7 -1.6 99 0.0 CALM 0 0 0 0 1021.8 1022.1 0.0
26/05:16am -1.5 -3.7 -1.6 99 0.0 CALM 0 6 0 3 1021.7 1022.0 0.0
26/05:00am -1.2 -4.5 -1.3 99 0.0 SE 6 7 3 4 1021.5 1021.8 0.0
26/04:37am -1.5 -4.5 -1.6 99 0.0 SE 4 7 2 4 1021.2 1021.5 0.0
26/04:36am -1.4 -4.4 -1.5 99 0.0 SE 4 6 2 3 1021.2 1021.5 0.0
26/04:30am -0.6 -2.7 -0.7 99 0.0 CALM 0 6 0 3 1021.1 1021.4 0.0
26/04:23am -0.4 -2.5 -0.5 99 0.0 CALM 0 0 0 0 1021.3 1021.6 0.0
26/04:16am -0.6 -2.7 -0.7 99 0.0 CALM 0 2 0 1 1021.4 1021.7 0.0
26/04:00am -0.4 -2.5 -0.5 99 0.0 CALM 0 0 0 0 1021.4 1021.7 0.0
26/03:30am -0.3 -2.3 -0.4 99 0.0 CALM 0 0 0 0 1021.7 1022.0 0.0
26/03:21am -0.5 -2.6 -0.6 99 0.0 CALM 0 0 0 0 1021.7 1022.0 0.0
26/03:08am -0.6 -2.7 -0.7 99 0.0 CALM 0 6 0 3 1021.7 1022.0 0.0
26/03:04am -0.6 -3.1 -0.7 99 0.0 S 2 6 1 3 1021.7 1022.0 0.0
26/03:00am -0.6 -3.4 -0.7 99 0.0 S 4 6 2 3 1021.7 1022.0 0.0
26/02:30am -0.1 -3.4 -0.2 99 0.0 SSE 7 9 4 5 1022.0 1022.3 0.0
26/02:12am -0.1 -3.3 -0.2 99 0.0 S 6 9 3 5 1022.1 1022.4 0.0
26/02:00am 0.3 -3.0 0.2 99 0.0 SSE 7 9 4 5 1022.2 1022.5 0.0
26/01:30am -0.1 -2.1 -0.2 99 0.0 CALM 0 0 0 0 1022.5 1022.8 0.0
26/01:21am -0.1 -2.1 -0.2 99 0.0 CALM 0 0 0 0 1022.4 1022.7 0.0
26/01:00am 0.2 -1.8 0.1 99 0.0 CALM 0 0 0 0 1022.2 1022.5 0.0
26/12:30am 1.2 -0.6 1.1 99 0.0 CALM 0 0 0 0 1022.6 1022.9 0.0
26/12:16am 1.0 -0.8 0.9 99 0.0 CALM 0 0 0 0 1022.6 1022.9 0.0
26/12:00am 0.7 -1.2 0.4 98 0.1 CALM 0 0 0 0 1022.8 1023.1 0.0
 
Date/Time
EST
Temp
°C
App
Temp
°C
Dew
Point
°C
Rel
Hum
%
Delta-T
°C
Wind Press
QNH
hPa
Press
MSL
hPa
Rain since
9am
mm
Dir  Spd
km/h
Gust
km/h
Spd
kts
Gust
kts
25/11:30pm 1.0 -0.9 0.7 98 0.1 CALM 0 0 0 0 1022.6 1022.9 0.0
25/11:00pm 1.7 -0.8 1.3 97 0.2 S 4 7 2 4 1022.7 1023.0 0.0
25/10:30pm 2.1 -0.8 1.7 97 0.2 SE 6 7 3 4 1022.7 1023.0 0.0
25/10:00pm 2.8 -0.1 2.5 98 0.1 SE 7 9 4 5 1022.6 1022.9 0.0
25/09:30pm 2.7 -0.2 2.4 98 0.1 SSE 7 9 4 5 1022.6 1022.9 0.0
25/09:00pm 2.2 0.5 1.6 96 0.2 CALM 0 0 0 0 1022.6 1022.9 0.0
25/08:30pm 3.4 1.8 2.7 95 0.3 CALM 0 0 0 0 1022.7 1023.0 0.0
25/08:00pm 3.9 2.4 2.9 93 0.4 CALM 0 2 0 1 1022.4 1022.7 0.0
25/07:30pm 4.6 2.7 2.9 89 0.7 WSW 2 6 1 3 1022.5 1022.8 0.0
25/07:00pm 5.1 2.3 3.1 87 0.8 WSW 7 9 4 5 1022.5 1022.8 0.0
25/06:30pm 6.0 4.6 3.5 84 1.1 CALM 0 7 0 4 1022.5 1022.8 0.0
25/06:00pm 6.4 3.4 3.9 84 1.1 W 9 13 5 7 1022.4 1022.7 0.0
25/05:30pm 7.3 3.9 4.1 80 1.4 W 11 13 6 7 1022.3 1022.6 0.0
25/05:00pm 7.8 4.8 4.0 77 1.6 W 9 15 5 8 1022.1 1022.4 0.0
25/04:30pm 8.9 4.8 4.3 73 2.0 WSW 15 20 8 11 1022.1 1022.4 0.0
25/04:00pm 9.6 5.9 4.6 71 2.2 WSW 13 17 7 9 1022.0 1022.3 0.0
25/03:30pm 9.7 5.6 4.5 70 2.3 WSW 15 20 8 11 1022.0 1022.3 0.0
25/03:00pm 9.8 5.3 4.4 69 2.4 W 17 26 9 14 1022.0 1022.3 0.0
25/02:30pm 9.8 5.1 2.9 62 3.0 SW 17 26 9 14 1021.9 1022.2 0.0
25/02:00pm 9.9 4.8 3.2 63 2.9 WSW 19 24 10 13 1022.0 1022.3 0.0
25/01:30pm 9.7 5.1 3.7 66 2.6 WSW 17 22 9 12 1022.3 1022.6 0.0
25/01:00pm 9.4 4.9 4.4 71 2.2 SW 17 20 9 11 1022.6 1022.9 0.0
25/12:30pm 8.4 4.2 3.7 72 2.0 WSW 15 20 8 11 1022.8 1023.1 0.0
25/12:00pm 8.1 3.9 3.6 73 1.9 SW 15 20 8 11 1023.0 1023.3 0.0
25/11:30am 7.5 6.2 3.9 78 1.6 CALM 0 7 0 4 1023.3 1023.6 0.0
25/11:00am 7.3 5.9 3.7 78 1.5 CALM 0 0 0 0 1023.6 1023.9 0.0
25/10:30am 5.7 4.1 2.4 79 1.4 CALM 0 6 0 3 1023.5 1023.8 0.0
25/10:00am 4.6 3.0 2.3 85 0.9 CALM 0 0 0 0 1023.3 1023.6 0.0
25/09:30am 4.0 2.3 1.9 86 0.8 CALM 0 0 0 0 1023.0 1023.3 0.0
25/09:00am 3.3 1.6 2.1 92 0.5 CALM 0 0 0 0 1022.7 1023.0 1.2
25/08:30am 1.4 -0.4 1.3 99 0.0 CALM 0 0 0 0 1022.6 1022.9 1.2
25/08:00am 0.0 -2.0 -0.1 99 0.0 CALM 0 0 0 0 1022.3 1022.6 1.2
25/07:30am -0.9 -3.1 -1.2 98 0.1 CALM 0 0 0 0 1021.9 1022.2 1.2
25/07:00am 0.1 -1.9 -0.3 97 0.1 CALM 0 0 0 0 1021.7 1022.0 1.2
25/06:30am 0.4 -1.6 -0.2 96 0.2 CALM 0 0 0 0 1021.2 1021.5 1.2
25/06:00am 0.9 -3.2 0.0 94 0.3 SW 11 15 6 8 1020.9 1021.2 1.2
25/05:30am 1.6 -2.0 0.9 95 0.3 SSE 9 11 5 6 1020.5 1020.8 1.2
25/05:00am 1.6 -1.6 0.7 94 0.3 S 7 9 4 5 1020.2 1020.5 1.2
25/04:30am 2.1 -0.9 1.1 93 0.4 SSE 6 7 3 4 1019.9 1020.2 1.2
25/04:00am 3.0 -0.5 1.2 88 0.7 WSW 9 17 5 9 1019.7 1020.0 1.2
25/03:30am 2.5 -0.7 1.0 90 0.6 SSW 7 9 4 5 1019.7 1020.0 1.2
25/03:00am 2.7 -1.3 0.8 87 0.7 W 11 17 6 9 1019.4 1019.7 1.2
25/02:30am 3.2 -0.7 0.9 85 0.9 W 11 17 6 9 1019.2 1019.5 1.2
25/02:00am 3.5 -1.1 1.4 86 0.8 WSW 15 20 8 11 1019.0 1019.2 1.2
25/01:30am 3.3 -1.0 1.2 86 0.8 W 13 19 7 10 1018.6 1018.8 1.2
25/01:00am 3.6 -1.0 1.5 86 0.8 WSW 15 20 8 11 1018.3 1018.6 1.2
25/12:30am 3.8 -1.2 1.4 84 0.9 W 17 24 9 13 1017.9 1018.2 1.2
25/12:00am 4.0 -1.4 1.2 82 1.1 W 19 24 10 13 1017.4 1017.7 1.2
 
Date/Time
EST
Temp
°C
App
Temp
°C
Dew
Point
°C
Rel
Hum
%
Delta-T
°C
Wind Press
QNH
hPa
Press
MSL
hPa
Rain since
9am
mm
Dir  Spd
km/h
Gust
km/h
Spd
kts
Gust
kts
24/11:30pm 4.2 -1.2 1.4 82 1.1 W 19 24 10 13 1017.3 1017.6 1.2
24/11:00pm 4.2 -0.8 1.4 82 1.1 W 17 22 9 12 1017.0 1017.3 1.2
24/10:30pm 4.3 -1.3 1.3 81 1.2 W 20 28 11 15 1016.5 1016.8 1.2
24/10:00pm 4.5 -1.4 1.5 81 1.2 W 22 28 12 15 1016.4 1016.7 1.2
24/09:30pm 4.6 -1.0 1.5 80 1.2 W 20 26 11 14 1015.9 1016.2 1.2
24/09:00pm 4.9 0.0 1.7 80 1.3 W 17 24 9 13 1015.6 1015.9 1.2
24/08:30pm 5.2 0.7 2.0 80 1.3 W 15 20 8 11 1015.2 1015.5 1.2
24/08:00pm 5.0 1.6 1.8 80 1.3 W 9 13 5 7 1014.7 1015.0 1.2
24/07:30pm 5.6 1.9 2.1 78 1.4 W 11 17 6 9 1013.9 1014.2 1.2
24/07:00pm 5.8 1.7 2.3 78 1.4 W 13 20 7 11 1013.3 1013.5 1.2
24/06:30pm 5.8 1.7 2.4 79 1.4 W 13 17 7 9 1012.6 1012.8 1.2
24/06:00pm 5.3 1.9 2.1 80 1.3 W 9 13 5 7 1011.9 1012.1 1.2
24/05:30pm 6.1 0.7 2.7 79 1.4 WSW 20 35 11 19 1011.0 1011.3 1.2
24/05:00pm 6.4 1.0 2.3 75 1.7 WSW 20 28 11 15 1010.3 1010.6 1.2
24/04:30pm 6.1 -0.7 3.1 81 1.3 WSW 28 52 15 28 1009.5 1009.8 1.0
24/04:25pm 6.1 -1.7 2.9 80 1.3 WSW 33 52 18 28 1009.6 1009.9 1.0
24/04:00pm 7.8 1.9 4.0 77 1.7 WSW 24 41 13 22 1009.0 1009.3 0.8
24/03:30pm 8.7 1.4 4.3 74 1.9 WSW 32 50 17 27 1008.2 1008.5 0.8
24/03:26pm 8.6 1.6 4.2 74 1.9 WSW 30 50 16 27 1008.2 1008.5 0.8
24/03:00pm 8.5 1.6 4.7 77 1.7 W 30 43 16 23 1007.5 1007.7 0.8
24/02:35pm 8.0 1.4 4.4 78 1.6 WSW 28 48 15 26 1007.1 1007.3 0.6
24/02:30pm 8.0 1.9 4.8 80 1.4 WSW 26 39 14 21 1007.0 1007.2 0.6
24/02:00pm 7.4 1.6 4.2 80 1.4 W 24 37 13 20 1006.6 1006.8 0.0
24/01:30pm 7.5 1.7 4.3 80 1.4 W 24 35 13 19 1006.5 1006.7 0.0
24/01:00pm 7.7 2.2 4.1 78 1.6 W 22 30 12 16 1006.3 1006.5 0.0
24/12:30pm 7.6 2.7 4.2 79 1.5 W 19 28 10 15 1006.2 1006.4 0.0
24/12:00pm 7.6 2.6 4.6 81 1.3 W 20 35 11 19 1006.2 1006.4 0.0
24/11:45am 7.4 2.6 4.4 81 1.3 W 19 28 10 15 1006.1 1006.3 0.0
24/11:30am 6.7 2.3 5.0 89 0.8 W 17 22 9 12 1006.1 1006.3 0.0
24/11:20am 6.4 2.4 4.7 89 0.7 W 15 19 8 10 1006.3 1006.5 0.0
24/11:00am 6.5 1.0 4.2 85 1.0 W 22 28 12 15 1006.2 1006.4 0.0
24/10:30am 6.3 1.1 3.8 84 1.1 W 20 32 11 17 1006.1 1006.3 0.0
24/10:22am 6.3 1.8 4.0 85 1.0 WNW 17 32 9 17 1006.0 1006.2 0.0
24/10:00am 6.2 0.8 4.4 88 0.8 W 22 33 12 18 1005.6 1005.8 0.0
24/09:55am 6.2 1.2 4.5 89 0.7 WNW 20 30 11 16 1005.5 1005.7 0.0
24/09:36am 6.0 1.6 4.8 92 0.5 WNW 17 28 9 15 1005.3 1005.5 0.0
24/09:30am 5.9 1.1 4.5 91 0.6 WNW 19 33 10 18 1005.2 1005.4 0.0
24/09:00am 6.1 0.8 4.9 92 0.5 WNW 22 33 12 18 1004.6 1004.9 9.0
24/08:30am 6.3 1.4 5.1 92 0.5 NW 20 37 11 20 1004.1 1004.4 8.8
24/08:06am 6.6 0.9 4.9 89 0.7 NW 24 32 13 17 1003.5 1003.8 8.8
24/08:00am 6.9 1.6 4.9 87 0.9 NW 22 33 12 18 1003.5 1003.8 8.8
24/07:30am 7.1 2.2 5.1 87 0.9 NW 20 28 11 15 1003.1 1003.4 8.8
24/07:00am 6.4 3.9 5.0 91 0.6 NNW 7 11 4 6 1002.7 1003.0 8.8
24/06:30am 6.7 2.4 5.2 90 0.7 NW 17 24 9 13 1002.7 1003.0 8.6
24/06:00am 7.3 3.5 5.8 90 0.7 NW 15 20 8 11 1002.3 1002.5 7.6
24/05:56am 7.3 3.5 5.6 89 0.8 NW 15 20 8 11 1002.3 1002.5 7.6
24/05:30am 7.3 4.2 5.6 89 0.8 NNW 11 17 6 9 1002.2 1002.4 7.4
24/05:13am 7.3 4.6 5.6 89 0.8 NNW 9 15 5 8 1002.1 1002.3 7.4
24/05:00am 7.4 4.0 5.9 90 0.7 NW 13 20 7 11 1002.3 1002.5 7.4
24/04:30am 7.5 2.9 5.6 88 0.9 NW 19 26 10 14 1002.3 1002.5 7.4
24/04:19am 7.5 3.0 6.0 90 0.7 NW 19 26 10 14 1002.3 1002.5 7.4
24/04:00am 7.5 3.4 6.1 91 0.6 NW 17 28 9 15 1002.3 1002.5 7.4
24/03:30am 7.4 4.1 6.5 94 0.4 NNW 13 19 7 10 1002.3 1002.5 7.4
24/03:12am 7.2 4.0 6.8 97 0.2 NNW 13 17 7 9 1002.3 1002.5 7.4
24/03:00am 7.1 4.3 6.8 98 0.1 NNW 11 15 6 8 1002.3 1002.5 7.4
24/02:44am 7.1 4.7 6.8 98 0.1 N 9 13 5 7 1002.2 1002.4 7.2
24/02:30am 7.0 3.8 6.7 98 0.1 N 13 17 7 9 1002.2 1002.4 7.2
24/02:29am 7.0 3.8 6.7 98 0.1 N 13 17 7 9 1002.2 1002.4 7.0
24/02:00am 6.9 4.3 6.3 96 0.3 NNW 9 13 5 7 1002.4 1002.6 6.6
24/01:30am 6.8 4.6 6.2 96 0.3 NNW 7 9 4 5 1002.2 1002.4 6.6

Other Formats:

Comma delimited format used in spreadsheet applications
http://www.bom.gov.au/fwo/IDV60801/IDV60801.94889.axf

JavaScript Object Notation format (JSON) in row-major order
http://www.bom.gov.au/fwo/IDV60801/IDV60801.94889.json